TK981 LTAI-LTAC
Flight info
| Callsign | TK981 |
|---|---|
| Flight time | 0h 52m |
| Altitude | 41000 |
| Route | HISAR UW77 HALIL |
| Aircraft | C700/M-SBDGHM1RWXY/LB2 |
Departure
| Time | 2026-05-06 16:15 |
|---|---|
| Airport | Antalya International Airport (LTAI) |
Arrival
| Time | 2026-05-06 17:07 |
|---|---|
| Airport | Esenboğa International Airport (LTAC) |
| Time | Latitude | Longitude | Altitude | Speed | Heading |
|---|---|---|---|---|---|
| 2026-05-06 15:48 | 36.90992 | 30.79942 | 179 ft | 0 kts | 96° |
| 2026-05-06 16:03 | 36.90993 | 30.79931 | 179 ft | 2 kts | 96° |
| 2026-05-06 16:04 | 36.90996 | 30.79911 | 179 ft | 2 kts | 98° |
| 2026-05-06 16:04 | 36.90998 | 30.79891 | 179 ft | 2 kts | 102° |
| 2026-05-06 16:04 | 36.91003 | 30.79871 | 179 ft | 2 kts | 112° |
| 2026-05-06 16:04 | 36.91013 | 30.79856 | 179 ft | 2 kts | 172° |
| 2026-05-06 16:05 | 36.91017 | 30.79856 | 179 ft | 0 kts | 188° |
| 2026-05-06 16:09 | 36.91003 | 30.79854 | 179 ft | 7 kts | 184° |
| 2026-05-06 16:09 | 36.90961 | 30.79847 | 179 ft | 9 kts | 200° |
| 2026-05-06 16:09 | 36.90901 | 30.79778 | 179 ft | 13 kts | 217° |
| 2026-05-06 16:10 | 36.90807 | 30.79739 | 178 ft | 16 kts | 184° |
| 2026-05-06 16:10 | 36.90690 | 30.79725 | 178 ft | 18 kts | 187° |
| 2026-05-06 16:10 | 36.90577 | 30.79707 | 178 ft | 15 kts | 188° |
| 2026-05-06 16:10 | 36.90495 | 30.79696 | 178 ft | 10 kts | 182° |
| 2026-05-06 16:11 | 36.90425 | 30.79724 | 177 ft | 12 kts | 134° |
| 2026-05-06 16:11 | 36.90401 | 30.79833 | 177 ft | 15 kts | 94° |
| 2026-05-06 16:11 | 36.90392 | 30.79973 | 178 ft | 17 kts | 95° |
| 2026-05-06 16:11 | 36.90378 | 30.80130 | 178 ft | 19 kts | 97° |
| 2026-05-06 16:12 | 36.90357 | 30.80301 | 178 ft | 20 kts | 99° |
| 2026-05-06 16:12 | 36.90343 | 30.80462 | 179 ft | 18 kts | 96° |
| 2026-05-06 16:12 | 36.90327 | 30.80620 | 179 ft | 14 kts | 97° |
| 2026-05-06 16:12 | 36.90319 | 30.80722 | 180 ft | 13 kts | 86° |
| 2026-05-06 16:13 | 36.90385 | 30.80796 | 180 ft | 15 kts | 9° |
| 2026-05-06 16:13 | 36.90502 | 30.80812 | 181 ft | 18 kts | 5° |
| 2026-05-06 16:13 | 36.90620 | 30.80824 | 181 ft | 12 kts | 4° |
| 2026-05-06 16:13 | 36.90696 | 30.80847 | 182 ft | 11 kts | 43° |
| 2026-05-06 16:14 | 36.90703 | 30.80907 | 182 ft | 6 kts | 117° |
| 2026-05-06 16:14 | 36.90664 | 30.80947 | 182 ft | 10 kts | 152° |
| 2026-05-06 16:14 | 36.90586 | 30.80989 | 181 ft | 15 kts | 158° |
| 2026-05-06 16:14 | 36.90490 | 30.81029 | 181 ft | 13 kts | 168° |
| 2026-05-06 16:15 | 36.90374 | 30.81042 | 181 ft | 31 kts | 182° |
| 2026-05-06 16:15 | 36.89835 | 30.80970 | 177 ft | 122 kts | 186° |
| 2026-05-06 16:15 | 36.88794 | 30.80819 | 428 ft | 171 kts | 187° |
| 2026-05-06 16:15 | 36.87476 | 30.80628 | 1078 ft | 211 kts | 186° |
| 2026-05-06 16:16 | 36.85903 | 30.80648 | 1920 ft | 241 kts | 167° |
| 2026-05-06 16:16 | 36.84254 | 30.81315 | 2939 ft | 262 kts | 162° |
| 2026-05-06 16:16 | 36.82435 | 30.81886 | 4024 ft | 279 kts | 169° |
| 2026-05-06 16:16 | 36.80452 | 30.82240 | 5191 ft | 294 kts | 169° |
| 2026-05-06 16:17 | 36.78483 | 30.83126 | 6362 ft | 307 kts | 153° |
| 2026-05-06 16:17 | 36.76567 | 30.84345 | 7543 ft | 317 kts | 147° |
| 2026-05-06 16:17 | 36.74945 | 30.86238 | 8788 ft | 324 kts | 127° |
| 2026-05-06 16:17 | 36.73860 | 30.88755 | 10107 ft | 330 kts | 107° |
| 2026-05-06 16:18 | 36.73440 | 30.91580 | 11370 ft | 333 kts | 93° |
| 2026-05-06 16:18 | 36.73215 | 30.94436 | 12685 ft | 336 kts | 92° |
| 2026-05-06 16:18 | 36.72995 | 30.97382 | 14066 ft | 337 kts | 92° |
| 2026-05-06 16:18 | 36.72770 | 31.00260 | 15279 ft | 336 kts | 91° |
| 2026-05-06 16:19 | 36.72894 | 31.03144 | 16504 ft | 330 kts | 76° |
| 2026-05-06 16:19 | 36.73541 | 31.05860 | 17748 ft | 323 kts | 62° |
| 2026-05-06 16:19 | 36.74632 | 31.08262 | 18906 ft | 314 kts | 48° |
| 2026-05-06 16:19 | 36.76080 | 31.10253 | 20003 ft | 306 kts | 35° |
| 2026-05-06 16:20 | 36.77789 | 31.11764 | 21117 ft | 296 kts | 22° |
| 2026-05-06 16:20 | 36.79636 | 31.12719 | 22241 ft | 286 kts | 10° |
| 2026-05-06 16:20 | 36.81572 | 31.13108 | 23373 ft | 276 kts | 357° |
| 2026-05-06 16:20 | 36.83431 | 31.12916 | 24341 ft | 267 kts | 344° |
| 2026-05-06 16:21 | 36.85157 | 31.12170 | 25272 ft | 259 kts | 330° |
| 2026-05-06 16:21 | 36.86629 | 31.10927 | 26207 ft | 253 kts | 317° |
| 2026-05-06 16:21 | 36.87420 | 31.09873 | 26810 ft | 250 kts | 308° |
| 2026-05-06 16:21 | 36.88479 | 31.07346 | 28022 ft | 247 kts | 291° |
| 2026-05-06 16:22 | 36.88716 | 31.05946 | 28607 ft | 248 kts | 282° |
| 2026-05-06 16:22 | 36.88683 | 31.03779 | 29501 ft | 252 kts | 268° |
| 2026-05-06 16:22 | 36.88566 | 31.01649 | 30287 ft | 238 kts | 287° |
| 2026-05-06 16:22 | 36.89334 | 30.99908 | 30935 ft | 229 kts | 317° |
| 2026-05-06 16:23 | 36.90780 | 30.99082 | 31576 ft | 236 kts | 348° |
| 2026-05-06 16:23 | 36.92421 | 30.99382 | 32192 ft | 245 kts | 5° |
| 2026-05-06 16:23 | 36.94063 | 30.99726 | 32805 ft | 235 kts | 357° |
| 2026-05-06 16:23 | 36.95688 | 30.99899 | 33362 ft | 233 kts | 355° |
| 2026-05-06 16:24 | 36.97299 | 31.00051 | 33881 ft | 231 kts | 355° |
| 2026-05-06 16:24 | 36.98910 | 31.00141 | 34210 ft | 230 kts | 344° |
| 2026-05-06 16:24 | 37.00397 | 30.99459 | 34349 ft | 231 kts | 323° |
| 2026-05-06 16:24 | 37.01696 | 30.98205 | 34400 ft | 246 kts | 316° |
| 2026-05-06 16:25 | 37.03031 | 30.96758 | 34492 ft | 261 kts | 318° |
| 2026-05-06 16:25 | 37.04467 | 30.95342 | 34949 ft | 262 kts | 320° |
| 2026-05-06 16:25 | 37.05924 | 30.93949 | 35376 ft | 264 kts | 320° |
| 2026-05-06 16:25 | 37.07375 | 30.92535 | 35855 ft | 264 kts | 320° |
| 2026-05-06 16:26 | 37.08803 | 30.91130 | 36318 ft | 263 kts | 320° |
| 2026-05-06 16:26 | 37.10248 | 30.89712 | 36770 ft | 263 kts | 320° |
| 2026-05-06 16:26 | 37.11781 | 30.88452 | 37202 ft | 265 kts | 329° |
| 2026-05-06 16:26 | 37.13440 | 30.87553 | 37931 ft | 256 kts | 335° |
| 2026-05-06 16:27 | 37.15229 | 30.86978 | 37920 ft | 275 kts | 345° |
| 2026-05-06 16:27 | 37.17170 | 30.86795 | 37955 ft | 292 kts | 355° |
| 2026-05-06 16:27 | 37.19246 | 30.87012 | 38006 ft | 306 kts | 359° |
| 2026-05-06 16:27 | 37.21412 | 30.87286 | 38044 ft | 317 kts | 359° |
| 2026-05-06 16:28 | 37.23651 | 30.87554 | 38086 ft | 328 kts | 359° |
| 2026-05-06 16:28 | 37.25941 | 30.87834 | 38117 ft | 339 kts | 359° |
| 2026-05-06 16:28 | 37.28360 | 30.88135 | 38151 ft | 350 kts | 0° |
| 2026-05-06 16:28 | 37.30796 | 30.88438 | 38150 ft | 360 kts | 0° |
| 2026-05-06 16:29 | 37.35920 | 30.89071 | 38193 ft | 379 kts | 0° |
| 2026-05-06 16:29 | 37.41305 | 30.89740 | 38252 ft | 397 kts | 0° |
| 2026-05-06 16:30 | 37.45952 | 30.90316 | 38290 ft | 410 kts | 1° |
| 2026-05-06 16:30 | 37.49736 | 30.90836 | 38746 ft | 410 kts | 2° |
| 2026-05-06 16:30 | 37.52564 | 30.91247 | 39149 ft | 407 kts | 3° |
| 2026-05-06 16:31 | 37.55340 | 30.91970 | 39548 ft | 408 kts | 11° |
| 2026-05-06 16:31 | 37.58016 | 30.93193 | 39957 ft | 409 kts | 19° |
| 2026-05-06 16:31 | 37.60551 | 30.94888 | 40081 ft | 418 kts | 27° |
| 2026-05-06 16:31 | 37.62956 | 30.97054 | 40116 ft | 428 kts | 31° |
| 2026-05-06 16:32 | 37.67798 | 31.01564 | 40120 ft | 441 kts | 31° |
| 2026-05-06 16:32 | 37.72806 | 31.06231 | 40117 ft | 454 kts | 32° |
| 2026-05-06 16:33 | 37.77861 | 31.11168 | 40111 ft | 470 kts | 38° |
| 2026-05-06 16:34 | 37.84907 | 31.20086 | 40122 ft | 486 kts | 40° |
| 2026-05-06 16:34 | 37.89728 | 31.26215 | 40124 ft | 495 kts | 41° |
| 2026-05-06 16:35 | 37.94595 | 31.32420 | 40123 ft | 490 kts | 40° |
| 2026-05-06 16:35 | 37.99349 | 31.38478 | 40122 ft | 487 kts | 41° |
| 2026-05-06 16:36 | 38.04131 | 31.44593 | 40124 ft | 487 kts | 41° |
| 2026-05-06 16:36 | 38.08892 | 31.50685 | 40123 ft | 489 kts | 40° |
| 2026-05-06 16:37 | 38.14284 | 31.55799 | 40124 ft | 482 kts | 25° |
| 2026-05-06 16:37 | 38.20305 | 31.59600 | 40127 ft | 482 kts | 22° |
| 2026-05-06 16:38 | 38.26281 | 31.63381 | 40130 ft | 477 kts | 22° |
| 2026-05-06 16:38 | 38.29176 | 31.65213 | 40063 ft | 454 kts | 22° |
| 2026-05-06 16:38 | 38.31964 | 31.66971 | 39887 ft | 439 kts | 22° |
| 2026-05-06 16:38 | 38.34670 | 31.68675 | 39698 ft | 430 kts | 21° |
| 2026-05-06 16:39 | 38.37362 | 31.70372 | 39512 ft | 435 kts | 22° |
| 2026-05-06 16:39 | 38.40125 | 31.72118 | 39369 ft | 448 kts | 22° |
| 2026-05-06 16:39 | 38.42920 | 31.73891 | 39261 ft | 458 kts | 22° |
| 2026-05-06 16:40 | 38.48679 | 31.77554 | 39083 ft | 459 kts | 22° |
| 2026-05-06 16:40 | 38.51531 | 31.79365 | 38972 ft | 455 kts | 22° |
| 2026-05-06 16:40 | 38.54359 | 31.81162 | 38868 ft | 452 kts | 22° |
| 2026-05-06 16:40 | 38.57141 | 31.82932 | 38755 ft | 452 kts | 22° |
| 2026-05-06 16:41 | 38.59966 | 31.84731 | 38609 ft | 453 kts | 22° |
| 2026-05-06 16:41 | 38.62804 | 31.86541 | 38490 ft | 454 kts | 22° |
| 2026-05-06 16:41 | 38.65635 | 31.88348 | 38361 ft | 454 kts | 22° |
| 2026-05-06 16:41 | 38.68467 | 31.90157 | 38244 ft | 455 kts | 22° |
| 2026-05-06 16:42 | 38.71297 | 31.91966 | 38127 ft | 455 kts | 22° |
| 2026-05-06 16:42 | 38.74100 | 31.93760 | 38019 ft | 456 kts | 22° |
| 2026-05-06 16:42 | 38.76944 | 31.95581 | 37922 ft | 456 kts | 22° |
| 2026-05-06 16:43 | 38.82639 | 31.99234 | 37732 ft | 455 kts | 22° |
| 2026-05-06 16:43 | 38.88268 | 32.02851 | 37542 ft | 454 kts | 22° |
| 2026-05-06 16:44 | 38.93907 | 32.06480 | 37367 ft | 452 kts | 22° |
| 2026-05-06 16:44 | 38.99530 | 32.10105 | 37185 ft | 453 kts | 22° |
| 2026-05-06 16:45 | 39.05142 | 32.13730 | 37012 ft | 454 kts | 22° |
| 2026-05-06 16:45 | 39.10818 | 32.17403 | 36871 ft | 455 kts | 23° |
| 2026-05-06 16:46 | 39.16457 | 32.21059 | 36737 ft | 454 kts | 23° |
| 2026-05-06 16:46 | 39.22114 | 32.24733 | 36603 ft | 453 kts | 23° |
| 2026-05-06 16:47 | 39.27743 | 32.28395 | 36413 ft | 453 kts | 23° |
| 2026-05-06 16:47 | 39.30546 | 32.30218 | 35838 ft | 459 kts | 23° |
| 2026-05-06 16:47 | 39.33398 | 32.32080 | 35232 ft | 457 kts | 23° |
| 2026-05-06 16:47 | 39.36180 | 32.34038 | 34615 ft | 455 kts | 30° |
| 2026-05-06 16:48 | 39.38547 | 32.36771 | 34109 ft | 459 kts | 45° |
| 2026-05-06 16:48 | 39.40358 | 32.40233 | 34106 ft | 471 kts | 58° |
| 2026-05-06 16:48 | 39.41935 | 32.43937 | 34111 ft | 483 kts | 54° |
| 2026-05-06 16:48 | 39.43972 | 32.47405 | 34093 ft | 485 kts | 40° |
| 2026-05-06 16:49 | 39.46656 | 32.50016 | 34090 ft | 477 kts | 25° |
| 2026-05-06 16:49 | 39.49702 | 32.51582 | 34095 ft | 466 kts | 11° |
| 2026-05-06 16:49 | 39.52885 | 32.52244 | 34102 ft | 460 kts | 4° |
| 2026-05-06 16:50 | 39.59198 | 32.53126 | 34110 ft | 458 kts | 2° |
| 2026-05-06 16:50 | 39.65559 | 32.54000 | 34104 ft | 459 kts | 3° |
| 2026-05-06 16:50 | 39.68730 | 32.54469 | 33708 ft | 455 kts | 3° |
| 2026-05-06 16:51 | 39.71809 | 32.54897 | 33115 ft | 444 kts | 2° |
| 2026-05-06 16:51 | 39.74854 | 32.55312 | 32529 ft | 434 kts | 2° |
| 2026-05-06 16:51 | 39.77843 | 32.55732 | 31968 ft | 427 kts | 2° |
| 2026-05-06 16:51 | 39.80789 | 32.56151 | 31405 ft | 426 kts | 2° |
| 2026-05-06 16:52 | 39.83734 | 32.56566 | 30858 ft | 422 kts | 2° |
| 2026-05-06 16:52 | 39.86582 | 32.56973 | 30243 ft | 411 kts | 3° |
| 2026-05-06 16:52 | 39.89353 | 32.57667 | 29416 ft | 402 kts | 11° |
| 2026-05-06 16:52 | 39.92000 | 32.58831 | 28574 ft | 399 kts | 18° |
| 2026-05-06 16:53 | 39.94462 | 32.60411 | 27762 ft | 391 kts | 25° |
| 2026-05-06 16:53 | 39.96682 | 32.62335 | 26960 ft | 369 kts | 32° |
| 2026-05-06 16:53 | 39.98759 | 32.64335 | 26201 ft | 373 kts | 31° |
| 2026-05-06 16:53 | 40.00851 | 32.66313 | 25463 ft | 367 kts | 31° |
| 2026-05-06 16:54 | 40.02861 | 32.68230 | 24746 ft | 356 kts | 32° |
| 2026-05-06 16:54 | 40.04843 | 32.70132 | 24039 ft | 350 kts | 32° |
| 2026-05-06 16:54 | 40.06799 | 32.72006 | 23277 ft | 336 kts | 32° |
| 2026-05-06 16:54 | 40.08682 | 32.73810 | 22445 ft | 336 kts | 32° |
| 2026-05-06 16:55 | 40.10552 | 32.75596 | 21673 ft | 336 kts | 33° |
| 2026-05-06 16:55 | 40.12433 | 32.77402 | 20904 ft | 333 kts | 33° |
| 2026-05-06 16:55 | 40.14184 | 32.79092 | 20132 ft | 308 kts | 33° |
| 2026-05-06 16:55 | 40.15925 | 32.80756 | 19403 ft | 311 kts | 33° |
| 2026-05-06 16:56 | 40.17676 | 32.82433 | 18715 ft | 313 kts | 34° |
| 2026-05-06 16:56 | 40.19420 | 32.84104 | 17971 ft | 313 kts | 34° |
| 2026-05-06 16:56 | 40.21184 | 32.85776 | 17207 ft | 314 kts | 34° |
| 2026-05-06 16:56 | 40.22952 | 32.87453 | 16475 ft | 312 kts | 34° |
| 2026-05-06 16:57 | 40.24657 | 32.89079 | 15896 ft | 285 kts | 34° |
| 2026-05-06 16:57 | 40.26160 | 32.90523 | 15365 ft | 254 kts | 36° |
| 2026-05-06 16:57 | 40.27469 | 32.91895 | 14758 ft | 233 kts | 38° |
| 2026-05-06 16:57 | 40.28729 | 32.93266 | 13149 ft | 240 kts | 38° |
| 2026-05-06 16:58 | 40.30164 | 32.94769 | 10716 ft | 290 kts | 37° |
| 2026-05-06 16:58 | 40.31632 | 32.96152 | 10672 ft | 244 kts | 35° |
| 2026-05-06 16:58 | 40.33071 | 32.97398 | 9403 ft | 254 kts | 34° |
| 2026-05-06 16:58 | 40.34374 | 32.98921 | 8570 ft | 245 kts | 54° |
| 2026-05-06 16:59 | 40.34957 | 33.00864 | 8210 ft | 220 kts | 84° |
| 2026-05-06 16:59 | 40.34869 | 33.02784 | 7898 ft | 202 kts | 102° |
| 2026-05-06 16:59 | 40.34459 | 33.04484 | 7433 ft | 193 kts | 123° |
| 2026-05-06 16:59 | 40.33557 | 33.05681 | 6936 ft | 188 kts | 149° |
| 2026-05-06 17:00 | 40.32411 | 33.06351 | 6782 ft | 161 kts | 166° |
| 2026-05-06 17:00 | 40.31397 | 33.06635 | 6689 ft | 139 kts | 181° |
| 2026-05-06 17:00 | 40.30436 | 33.06327 | 6183 ft | 144 kts | 213° |
| 2026-05-06 17:00 | 40.29760 | 33.05454 | 5884 ft | 139 kts | 237° |
| 2026-05-06 17:01 | 40.29260 | 33.04289 | 5358 ft | 147 kts | 244° |
| 2026-05-06 17:01 | 40.28837 | 33.03193 | 5214 ft | 132 kts | 241° |
| 2026-05-06 17:01 | 40.28258 | 33.02135 | 5045 ft | 138 kts | 223° |
| 2026-05-06 17:01 | 40.27379 | 33.01828 | 4953 ft | 140 kts | 173° |
| 2026-05-06 17:02 | 40.26442 | 33.02132 | 4895 ft | 140 kts | 162° |
| 2026-05-06 17:02 | 40.25539 | 33.02575 | 4844 ft | 139 kts | 165° |
| 2026-05-06 17:02 | 40.24791 | 33.03076 | 3459 ft | 62 kts | 53° |
| 2026-05-06 17:02 | 40.25840 | 33.02479 | 4404 ft | 235 kts | 338° |
| 2026-05-06 17:03 | 40.27406 | 33.02576 | 5082 ft | 237 kts | 28° |
| 2026-05-06 17:03 | 40.27768 | 33.04532 | 5294 ft | 224 kts | 99° |
| 2026-05-06 17:03 | 40.26981 | 33.06242 | 5150 ft | 225 kts | 137° |
| 2026-05-06 17:03 | 40.25789 | 33.07382 | 5473 ft | 201 kts | 160° |
| 2026-05-06 17:04 | 40.24475 | 33.07602 | 5726 ft | 185 kts | 193° |
| 2026-05-06 17:04 | 40.23298 | 33.07373 | 6099 ft | 142 kts | 186° |
| 2026-05-06 17:04 | 40.22448 | 33.07359 | 6105 ft | 114 kts | 183° |
| 2026-05-06 17:04 | 40.21631 | 33.07426 | 5830 ft | 117 kts | 178° |
| 2026-05-06 17:05 | 40.20822 | 33.07237 | 5812 ft | 126 kts | 206° |
| 2026-05-06 17:05 | 40.20165 | 33.06675 | 5709 ft | 115 kts | 214° |
| 2026-05-06 17:05 | 40.19401 | 33.06077 | 5453 ft | 140 kts | 217° |
| 2026-05-06 17:05 | 40.18647 | 33.05196 | 5357 ft | 145 kts | 228° |
| 2026-05-06 17:06 | 40.17912 | 33.04300 | 4855 ft | 133 kts | 223° |
| 2026-05-06 17:06 | 40.17170 | 33.03631 | 4280 ft | 124 kts | 216° |
| 2026-05-06 17:06 | 40.16454 | 33.03079 | 3852 ft | 116 kts | 212° |
| 2026-05-06 17:06 | 40.15789 | 33.02494 | 3543 ft | 120 kts | 218° |
| 2026-05-06 17:07 | 40.15104 | 33.01862 | 3443 ft | 122 kts | 219° |
| 2026-05-06 17:07 | 40.14411 | 33.01188 | 3247 ft | 125 kts | 217° |
| 2026-05-06 17:07 | 40.13720 | 33.00533 | 3140 ft | 115 kts | 218° |
| 2026-05-06 17:07 | 40.13290 | 33.00110 | 3122 ft | 35 kts | 216° |
| 2026-05-06 17:08 | 40.13100 | 32.99928 | 3120 ft | 34 kts | 216° |
| 2026-05-06 17:08 | 40.12908 | 32.99748 | 3118 ft | 34 kts | 216° |
| 2026-05-06 17:08 | 40.12719 | 32.99569 | 3117 ft | 33 kts | 214° |
| 2026-05-06 17:08 | 40.12533 | 32.99391 | 3114 ft | 31 kts | 218° |
| 2026-05-06 17:09 | 40.12361 | 32.99251 | 3113 ft | 29 kts | 203° |
| 2026-05-06 17:09 | 40.12189 | 32.99201 | 3111 ft | 12 kts | 186° |
| 2026-05-06 17:09 | 40.12094 | 32.99187 | 3111 ft | 16 kts | 187° |
| 2026-05-06 17:09 | 40.11976 | 32.99161 | 3109 ft | 19 kts | 200° |
| 2026-05-06 17:10 | 40.11860 | 32.99070 | 3108 ft | 17 kts | 210° |
| 2026-05-06 17:10 | 40.11783 | 32.99078 | 3107 ft | 11 kts | 138° |
| 2026-05-06 17:10 | 40.11703 | 32.99113 | 3107 ft | 14 kts | 182° |
| 2026-05-06 17:10 | 40.11650 | 32.99124 | 3107 ft | 8 kts | 158° |